createdAt,value
2022-09-15T00:00:32.315Z,98739.50
2022-09-15T00:01:34.753Z,98735.98
2022-09-15T00:02:37.353Z,98737.79
2022-09-15T00:03:39.983Z,98738.66
2022-09-15T00:04:42.086Z,98739.50
2022-09-15T00:05:44.612Z,98735.98
2022-09-15T00:06:46.812Z,98736.83
2022-09-15T00:07:49.525Z,98739.50
2022-09-15T00:08:52.095Z,98731.48
2022-09-15T00:09:54.937Z,98732.31
2022-09-15T00:11:07.806Z,98735.85
2022-09-15T00:12:09.936Z,98735.85
2022-09-15T00:13:13.205Z,98734.15
2022-09-15T00:14:15.289Z,98735.98
2022-09-15T00:15:17.642Z,98730.64
2022-09-15T00:16:23.381Z,98738.66
2022-09-15T00:17:25.733Z,98734.28
2022-09-15T00:18:29.756Z,98735.12
2022-09-15T00:19:32.027Z,98739.62
2022-09-15T00:20:40.658Z,98732.45
2022-09-15T00:21:43.733Z,98732.45
2022-09-15T00:22:47.081Z,98736.95
2022-09-15T00:23:49.319Z,98731.61
2022-09-15T00:24:51.435Z,98729.77
2022-09-15T00:25:53.531Z,98728.09
2022-09-15T00:26:55.736Z,98726.27
2022-09-15T00:27:58.925Z,98720.91
2022-09-15T00:29:01.387Z,98720.91
2022-09-15T00:30:05.608Z,98715.56
2022-09-15T00:31:10.589Z,98717.41
2022-09-15T00:32:12.853Z,98714.73
2022-09-15T00:33:15.726Z,98712.06
2022-09-15T00:34:17.880Z,98714.73
2022-09-15T00:35:19.989Z,98714.60
2022-09-15T00:36:24.350Z,98716.41
2022-09-15T00:37:28.080Z,98718.24
2022-09-15T00:38:30.765Z,98718.24
2022-09-15T00:39:33.326Z,98716.41
2022-09-15T00:41:58.295Z,98714.67
2022-09-15T00:43:01.273Z,98716.41
2022-09-15T00:45:23.894Z,98719.16
2022-09-15T00:46:32.422Z,98723.59
2022-09-15T00:47:38.070Z,98724.55
2022-09-15T00:49:02.353Z,98722.75
2022-09-15T00:51:22.161Z,98714.67
2022-09-15T00:53:39.598Z,98714.91
2022-09-15T00:54:46.565Z,98715.84
2022-09-15T00:55:49.501Z,98719.34
2022-09-15T00:56:53.200Z,98720.18
2022-09-15T00:58:01.483Z,98714.00
2022-09-15T00:59:06.256Z,98713.86
2022-09-15T01:00:13.840Z,98714.83
2022-09-15T01:01:16.725Z,98716.67
2022-09-15T01:02:21.933Z,98715.70
2022-09-15T01:03:24.543Z,98715.70
2022-09-15T01:04:26.858Z,98714.00
2022-09-15T01:05:34.950Z,98714.83
2022-09-15T01:06:41.166Z,98713.86
2022-09-15T01:07:52.860Z,98708.65
2022-09-15T01:09:23.161Z,98710.36
2022-09-15T01:10:30.689Z,98714.83
2022-09-15T01:11:33.485Z,98712.16
2022-09-15T01:12:38.041Z,98707.81
2022-09-15T01:13:40.222Z,98717.64
2022-09-15T01:14:42.319Z,98714.13
2022-09-15T01:17:35.450Z,98710.70
2022-09-15T01:20:26.363Z,98706.31
2022-09-15T01:21:32.983Z,98710.72
2022-09-15T01:22:38.301Z,98706.37
2022-09-15T01:24:03.987Z,98703.83
2022-09-15T01:25:19.021Z,98709.18
2022-09-15T01:26:45.304Z,98704.80
2022-09-15T01:28:25.864Z,98703.09
2022-09-15T01:29:51.475Z,98697.88
2022-09-15T01:31:09.596Z,98704.20
2022-09-15T01:32:35.194Z,98690.13
2022-09-15T01:33:48.949Z,98690.27
2022-09-15T01:36:12.861Z,98693.14
2022-09-15T01:37:17.608Z,98687.82
2022-09-15T01:38:32.966Z,98681.77
2022-09-15T01:40:51.993Z,98675.41
2022-09-15T01:42:03.192Z,98679.80
2022-09-15T01:43:05.483Z,98683.34
2022-09-15T01:44:09.932Z,98683.34
2022-09-15T01:45:16.956Z,98679.70
2022-09-15T01:46:21.297Z,98683.21
2022-09-15T01:47:24.449Z,98683.21
2022-09-15T01:48:26.611Z,98676.03
2022-09-15T01:49:30.406Z,98675.06
2022-09-15T01:50:34.757Z,98673.23
2022-09-15T01:51:36.876Z,98675.90
2022-09-15T01:52:43.751Z,98676.64
2022-09-15T01:53:45.886Z,98681.02
2022-09-15T01:54:49.675Z,98676.50
2022-09-15T01:55:58.034Z,98670.19
2022-09-15T01:57:01.312Z,98679.05
2022-09-15T01:58:04.122Z,98670.06
2022-09-15T01:59:06.475Z,98669.09
2022-09-15T02:00:10.643Z,98676.23
2022-09-15T02:01:25.723Z,98661.91
2022-09-15T02:02:30.940Z,98668.09
2022-09-15T02:03:37.673Z,98662.74
2022-09-15T02:04:49.093Z,98665.41
2022-09-15T02:05:58.024Z,98666.28
2022-09-15T02:07:06.944Z,98660.07
2022-09-15T02:08:16.054Z,98666.28
2022-09-15T02:10:46.016Z,98667.19
2022-09-15T02:13:22.141Z,98661.84
2022-09-15T02:14:44.405Z,98662.74
2022-09-15T02:15:51.971Z,98661.91
2022-09-15T02:16:55.366Z,98661.08
2022-09-15T02:17:57.685Z,98654.02
2022-09-15T02:19:12.071Z,98667.39
2022-09-15T02:20:20.763Z,98667.39
2022-09-15T02:22:42.044Z,98659.30
2022-09-15T02:25:35.245Z,98660.27
2022-09-15T02:26:37.644Z,98662.04
2022-09-15T02:27:42.535Z,98661.20
2022-09-15T02:28:46.384Z,98663.88
2022-09-15T02:29:48.639Z,98658.53
2022-09-15T02:30:52.390Z,98659.37
2022-09-15T02:31:55.706Z,98670.06
2022-09-15T02:33:01.589Z,98669.09
2022-09-15T02:34:07.506Z,98669.09
2022-09-15T02:35:10.140Z,98661.08
2022-09-15T02:36:13.164Z,98663.74
2022-09-15T02:37:15.294Z,98663.74
2022-09-15T02:38:17.729Z,98657.39
2022-09-15T02:39:22.489Z,98658.27
2022-09-15T02:40:24.765Z,98656.56
2022-09-15T02:41:27.054Z,98654.73
2022-09-15T02:42:30.542Z,98649.38
2022-09-15T02:43:32.773Z,98650.25
2022-09-15T02:44:36.190Z,98652.92
2022-09-15T02:45:38.579Z,98659.10
2022-09-15T02:46:40.932Z,98651.08
2022-09-15T02:47:43.053Z,98654.59
2022-09-15T02:48:45.159Z,98655.46
2022-09-15T02:49:49.410Z,98651.08
2022-09-15T02:50:51.633Z,98650.11
2022-09-15T02:51:53.784Z,98653.63
2022-09-15T02:52:55.875Z,98652.66
2022-09-15T02:53:57.998Z,98654.49
2022-09-15T02:55:00.166Z,98655.20
2022-09-15T02:56:03.706Z,98650.69
2022-09-15T02:57:06.011Z,98651.69
2022-09-15T02:58:09.638Z,98656.03
2022-09-15T02:59:11.928Z,98655.06
2022-09-15T03:00:17.332Z,98649.84
2022-09-15T03:01:19.831Z,98654.22
2022-09-15T03:02:22.519Z,98645.34
2022-09-15T03:03:27.373Z,98647.91
2022-09-15T03:04:29.550Z,98653.25
2022-09-15T03:05:31.641Z,98645.11
2022-09-15T03:06:34.023Z,98647.78
2022-09-15T03:07:36.177Z,98650.31
2022-09-15T03:08:38.302Z,98650.31
2022-09-15T03:09:40.485Z,98647.64
2022-09-15T03:10:42.722Z,98644.97
2022-09-15T03:11:46.067Z,98644.00
2022-09-15T03:12:50.342Z,98637.78
2022-09-15T03:13:55.440Z,98635.98
2022-09-15T03:14:58.292Z,98638.66
2022-09-15T03:16:09.035Z,98644.00
2022-09-15T03:17:12.114Z,98643.00
2022-09-15T03:18:14.939Z,98641.33
2022-09-15T03:19:18.106Z,98635.98
2022-09-15T03:20:22.596Z,98642.16
2022-09-15T03:21:25.147Z,98638.66
2022-09-15T03:22:27.329Z,98638.66
2022-09-15T03:23:29.412Z,98637.78
2022-09-15T03:24:31.548Z,98642.30
2022-09-15T03:25:33.727Z,98634.28
2022-09-15T03:26:36.486Z,98628.94
2022-09-15T03:27:39.279Z,98633.41
2022-09-15T03:28:41.507Z,98628.94
2022-09-15T03:29:43.586Z,98626.27
2022-09-15T03:30:46.884Z,98622.72
2022-09-15T03:31:49.222Z,98619.08
2022-09-15T03:32:52.197Z,98620.91
2022-09-15T03:33:54.834Z,98621.75
2022-09-15T03:34:58.608Z,98615.43
2022-09-15T03:36:01.540Z,98620.78
2022-09-15T03:37:03.717Z,98617.27
2022-09-15T03:38:05.866Z,98618.11
2022-09-15T03:39:28.791Z,98618.94
2022-09-15T03:40:31.368Z,98609.95
2022-09-15T03:41:33.614Z,98609.95
2022-09-15T03:42:36.205Z,98592.62
2022-09-15T03:43:38.665Z,98592.62
2022-09-15T03:44:41.053Z,98602.77
2022-09-15T03:45:43.187Z,98598.42
2022-09-15T03:46:45.624Z,98599.26
2022-09-15T03:47:47.726Z,98596.59
2022-09-15T03:48:49.815Z,98594.75
2022-09-15T03:49:53.858Z,98592.21
2022-09-15T03:50:57.217Z,98601.09
2022-09-15T03:51:59.577Z,98598.42
2022-09-15T03:53:02.664Z,98595.75
2022-09-15T03:54:04.830Z,98597.55
2022-09-15T03:55:07.926Z,98598.42
2022-09-15T03:56:20.265Z,98597.55
2022-09-15T03:57:23.337Z,98596.59
2022-09-15T03:58:30.520Z,98601.09
2022-09-15T03:59:30.527Z,98603.77
2022-09-15T04:00:33.328Z,98600.23
2022-09-15T04:01:35.972Z,98596.72
2022-09-15T04:02:39.373Z,98600.23
2022-09-15T04:03:46.352Z,98599.39
2022-09-15T04:04:46.337Z,98598.56
2022-09-15T04:05:48.888Z,98596.72
2022-09-15T04:06:51.981Z,98585.20
2022-09-15T04:07:54.063Z,98585.20
2022-09-15T04:08:57.249Z,98590.54
2022-09-15T04:09:59.394Z,98589.53
2022-09-15T04:11:06.418Z,98589.53
2022-09-15T04:12:08.897Z,98594.05
2022-09-15T04:13:10.978Z,98593.22
2022-09-15T04:14:13.568Z,98602.91
2022-09-15T04:15:15.870Z,98603.77
2022-09-15T04:16:21.274Z,98606.58
2022-09-15T04:17:25.521Z,98606.58
2022-09-15T04:18:28.469Z,98609.25
2022-09-15T04:19:30.884Z,98609.25
2022-09-15T04:20:33.856Z,98612.76
2022-09-15T04:21:36.314Z,98603.91
2022-09-15T04:22:39.434Z,98600.36
2022-09-15T04:23:42.131Z,98602.91
2022-09-15T04:24:44.449Z,98609.25
2022-09-15T04:27:12.121Z,98592.27
2022-09-15T04:28:14.771Z,98598.56
2022-09-15T04:29:17.356Z,98594.19
2022-09-15T04:30:21.720Z,98593.31
2022-09-15T04:31:24.224Z,98594.19
2022-09-15T04:32:29.116Z,98605.01
2022-09-15T04:33:31.277Z,98598.80
2022-09-15T04:34:36.122Z,98601.47
2022-09-15T04:35:37.577Z,98597.96
2022-09-15T04:36:40.377Z,98607.81
2022-09-15T04:37:42.783Z,98609.48
2022-09-15T04:38:44.926Z,98607.81
2022-09-15T04:39:47.100Z,98611.33
2022-09-15T04:40:49.360Z,98617.51
2022-09-15T04:41:51.445Z,98605.98
2022-09-15T04:42:54.278Z,98617.51
2022-09-15T04:43:56.410Z,98614.84
2022-09-15T04:44:58.546Z,98617.38
2022-09-15T04:46:00.626Z,98614.84
2022-09-15T04:47:04.370Z,98613.03
2022-09-15T04:48:06.617Z,98612.02
2022-09-15T04:49:08.717Z,98610.22
2022-09-15T04:50:11.854Z,98614.70
2022-09-15T04:51:16.568Z,98615.56
2022-09-15T04:52:19.560Z,98614.70
2022-09-15T04:53:21.758Z,98607.55
2022-09-15T04:54:24.389Z,98604.88
2022-09-15T04:55:26.520Z,98601.23
2022-09-15T04:56:29.264Z,98603.91
2022-09-15T04:57:33.177Z,98592.21
2022-09-15T04:59:50.373Z,98579.77
2022-09-15T05:00:53.407Z,98579.71
2022-09-15T05:01:55.805Z,98569.16
2022-09-15T05:02:58.607Z,98564.64
2022-09-15T05:04:03.365Z,98569.16
2022-09-15T05:05:06.250Z,98573.64
2022-09-15T05:06:10.484Z,98578.14
2022-09-15T05:07:13.211Z,98578.98
2022-09-15T05:08:15.368Z,98578.14
2022-09-15T05:09:17.475Z,98578.98
2022-09-15T05:10:21.370Z,98567.31
2022-09-15T05:11:23.989Z,98575.34
2022-09-15T05:12:26.071Z,98569.99
2022-09-15T05:13:28.204Z,98572.66
2022-09-15T05:14:30.277Z,98582.52
2022-09-15T05:15:32.422Z,98579.95
2022-09-15T05:16:34.857Z,98580.81
2022-09-15T05:17:37.610Z,98583.48
2022-09-15T05:18:40.823Z,98569.66
2022-09-15T05:19:43.608Z,98569.66
2022-09-15T05:20:45.955Z,98572.80
2022-09-15T05:21:49.149Z,98572.80
2022-09-15T05:22:51.322Z,98579.84
2022-09-15T05:23:53.704Z,98578.98
2022-09-15T05:24:56.931Z,98572.80
2022-09-15T05:26:01.030Z,98569.16
2022-09-15T05:27:04.013Z,98575.47
2022-09-15T05:28:06.214Z,98566.48
2022-09-15T05:29:08.700Z,98562.81
2022-09-15T05:32:29.733Z,98564.55
2022-09-15T05:33:33.633Z,98566.34
2022-09-15T05:34:36.943Z,98567.31
2022-09-15T05:35:39.610Z,98563.81
2022-09-15T05:36:41.965Z,98567.31
2022-09-15T05:37:44.059Z,98565.62
2022-09-15T05:38:46.142Z,98567.31
2022-09-15T05:39:49.319Z,98565.48
2022-09-15T05:40:52.840Z,98559.30
2022-09-15T05:41:55.208Z,98553.12
2022-09-15T05:42:57.289Z,98553.95
2022-09-15T05:44:00.499Z,98550.45
2022-09-15T05:45:03.034Z,98548.61
2022-09-15T05:46:06.875Z,98548.61
2022-09-15T05:47:09.881Z,98557.46
2022-09-15T05:48:12.082Z,98554.79
2022-09-15T05:49:14.290Z,98564.64
2022-09-15T05:50:17.458Z,98558.47
2022-09-15T05:51:20.052Z,98562.94
2022-09-15T05:52:23.251Z,98561.23
2022-09-15T05:53:25.441Z,98563.91
2022-09-15T05:54:28.578Z,98563.08
2022-09-15T05:55:31.746Z,98562.11
2022-09-15T05:56:36.071Z,98560.41
2022-09-15T05:57:38.995Z,98557.73
2022-09-15T05:58:44.697Z,98558.56
2022-09-15T05:59:46.832Z,98568.42
2022-09-15T06:00:50.613Z,98563.08
2022-09-15T06:01:53.783Z,98560.41
2022-09-15T06:02:58.460Z,98567.59
2022-09-15T06:04:01.247Z,98562.11
2022-09-15T06:05:04.489Z,98562.11
2022-09-15T06:06:08.270Z,98562.11
2022-09-15T06:07:12.480Z,98564.78
2022-09-15T06:08:15.235Z,98563.81
2022-09-15T06:09:18.162Z,98561.14
2022-09-15T06:10:22.524Z,98574.50
2022-09-15T06:11:28.294Z,98569.16
2022-09-15T06:12:30.429Z,98575.47
2022-09-15T06:13:33.059Z,98577.17
2022-09-15T06:14:35.142Z,98572.80
2022-09-15T06:15:37.898Z,98581.66
2022-09-15T06:16:40.361Z,98570.96
2022-09-15T06:17:43.036Z,98575.34
2022-09-15T06:18:45.507Z,98574.50
2022-09-15T06:19:47.891Z,98577.04
2022-09-15T06:20:50.965Z,98572.53
2022-09-15T06:21:53.332Z,98572.53
2022-09-15T06:22:56.065Z,98572.53
2022-09-15T06:23:59.975Z,98575.20
2022-09-15T06:25:02.269Z,98583.09
2022-09-15T06:26:14.867Z,98584.05
2022-09-15T06:27:17.025Z,98585.89
2022-09-15T06:28:19.104Z,98580.55
2022-09-15T06:29:22.265Z,98582.25
2022-09-15T06:30:25.095Z,98579.58
2022-09-15T06:31:28.356Z,98584.05
2022-09-15T06:32:30.799Z,98585.76
2022-09-15T06:33:33.584Z,98585.76
2022-09-15T06:34:35.948Z,98577.73
2022-09-15T06:35:38.578Z,98591.94
2022-09-15T06:36:40.795Z,98582.11
2022-09-15T06:37:43.272Z,98584.78
2022-09-15T06:38:45.552Z,98583.92
2022-09-15T06:39:47.695Z,98582.95
2022-09-15T06:40:57.620Z,98572.26
2022-09-15T06:42:03.273Z,98572.26
2022-09-15T06:43:04.523Z,98568.75
2022-09-15T06:44:07.718Z,98561.70
2022-09-15T06:45:11.191Z,98568.88
2022-09-15T06:46:15.846Z,98564.38
2022-09-15T06:47:18.094Z,98556.35
2022-09-15T06:48:24.964Z,98552.84
2022-09-15T06:49:24.796Z,98554.52
2022-09-15T06:50:28.033Z,98545.66
2022-09-15T06:51:31.092Z,98552.84
2022-09-15T06:52:33.684Z,98542.16
2022-09-15T06:53:37.337Z,98540.31
2022-09-15T06:54:40.478Z,98542.16
2022-09-15T06:55:42.643Z,98542.16
2022-09-15T06:56:44.876Z,98538.48
2022-09-15T06:57:46.976Z,98536.67
2022-09-15T06:58:49.097Z,98528.66
2022-09-15T06:59:51.196Z,98535.70
2022-09-15T07:00:53.496Z,98547.23
2022-09-15T07:01:56.602Z,98544.55
2022-09-15T07:02:59.748Z,98543.58
2022-09-15T07:04:04.144Z,98541.74
2022-09-15T07:05:07.455Z,98547.09
2022-09-15T07:06:10.295Z,98544.41
2022-09-15T07:07:12.409Z,98542.58
2022-09-15T07:08:14.618Z,98545.25
2022-09-15T07:09:17.028Z,98549.62
2022-09-15T07:10:21.072Z,98542.47
2022-09-15T07:11:23.420Z,98557.51
2022-09-15T07:12:25.503Z,98551.19
2022-09-15T07:13:41.939Z,98552.03
2022-09-15T07:14:44.688Z,98548.52
2022-09-15T07:15:54.119Z,98553.73
2022-09-15T07:16:56.722Z,98557.12
2022-09-15T07:18:00.065Z,98554.45
2022-09-15T07:19:02.307Z,98555.43
2022-09-15T07:20:05.963Z,98557.12
2022-09-15T07:21:10.712Z,98561.47
2022-09-15T07:22:12.931Z,98564.15
2022-09-15T07:23:15.436Z,98560.50
2022-09-15T07:24:18.039Z,98556.99
2022-09-15T07:25:20.511Z,98561.34
2022-09-15T07:26:25.274Z,98562.34
2022-09-15T07:27:27.427Z,98561.47
2022-09-15T07:28:30.192Z,98569.50
2022-09-15T07:29:37.067Z,98569.50
2022-09-15T07:30:36.810Z,98570.23
2022-09-15T07:31:39.029Z,98564.02
2022-09-15T07:32:42.334Z,98563.04
2022-09-15T07:33:44.624Z,98561.23
2022-09-15T07:34:46.797Z,98555.02
2022-09-15T07:35:49.778Z,98552.34
2022-09-15T07:36:54.080Z,98558.56
2022-09-15T07:37:56.349Z,98556.72
2022-09-15T07:38:58.438Z,98552.23
2022-09-15T07:40:01.340Z,98562.80
2022-09-15T07:41:14.654Z,98559.15
2022-09-15T07:42:16.900Z,98557.34
2022-09-15T07:43:19.076Z,98560.85
2022-09-15T07:44:21.719Z,98553.66
2022-09-15T07:45:23.867Z,98555.88
2022-09-15T07:46:27.033Z,98555.88
2022-09-15T07:47:29.170Z,98557.20
2022-09-15T07:48:32.357Z,98556.34
2022-09-15T07:49:34.442Z,98552.83
2022-09-15T07:50:37.131Z,98550.98
2022-09-15T07:51:39.234Z,98555.36
2022-09-15T07:52:41.340Z,98546.38
2022-09-15T07:53:45.345Z,98552.69
2022-09-15T07:54:48.745Z,98547.20
2022-09-15T07:55:54.386Z,98548.07
2022-09-15T07:56:58.487Z,98540.88
2022-09-15T07:58:02.470Z,98548.91
2022-09-15T07:59:04.631Z,98544.53
2022-09-15T08:00:08.026Z,98547.06
2022-09-15T08:01:12.128Z,98542.59
2022-09-15T08:02:18.385Z,98540.88
2022-09-15T08:03:20.803Z,98547.06
2022-09-15T08:04:23.009Z,98541.72
2022-09-15T08:05:27.169Z,98541.72
2022-09-15T08:06:29.687Z,98543.42
2022-09-15T08:07:32.108Z,98539.91
2022-09-15T08:08:35.301Z,98539.91
2022-09-15T08:09:38.086Z,98539.05
2022-09-15T08:10:40.735Z,98532.03
2022-09-15T08:11:43.124Z,98533.70
2022-09-15T08:12:47.007Z,98537.37
2022-09-15T08:13:50.037Z,98534.70
2022-09-15T08:14:52.190Z,98532.86
2022-09-15T08:15:54.799Z,98528.48
2022-09-15T08:16:57.756Z,98531.16
2022-09-15T08:18:01.374Z,98531.16
2022-09-15T08:19:03.920Z,98535.67
2022-09-15T08:20:07.431Z,98538.34
2022-09-15T08:21:11.489Z,98539.05
2022-09-15T08:22:13.735Z,98534.70
2022-09-15T08:23:16.367Z,98532.86
2022-09-15T08:24:18.444Z,98536.38
2022-09-15T08:25:20.529Z,98540.88
2022-09-15T08:26:26.312Z,98530.19
2022-09-15T08:27:28.536Z,98530.05
2022-09-15T08:28:31.357Z,98531.89
2022-09-15T08:29:34.505Z,98527.38
2022-09-15T08:30:36.736Z,98527.38
2022-09-15T08:31:40.023Z,98530.88
2022-09-15T08:32:42.299Z,98524.56
2022-09-15T08:35:00.954Z,98524.45
2022-09-15T08:36:06.260Z,98519.08
2022-09-15T08:37:08.498Z,98524.42
2022-09-15T08:38:11.156Z,98519.08
2022-09-15T08:39:14.320Z,98520.05
2022-09-15T08:40:20.585Z,98518.10
2022-09-15T08:41:34.750Z,98514.59
2022-09-15T08:42:38.192Z,98515.42
2022-09-15T08:43:47.064Z,98518.94
2022-09-15T08:44:52.616Z,98516.27
2022-09-15T08:45:57.195Z,98518.10
2022-09-15T08:47:19.990Z,98524.28
2022-09-15T08:48:25.819Z,98519.08
2022-09-15T08:49:50.417Z,98520.91
2022-09-15T08:50:38.690Z,98523.73
2022-09-15T08:51:45.452Z,98517.52
2022-09-15T08:53:00.182Z,98522.03
2022-09-15T08:54:08.826Z,98519.36
2022-09-15T08:55:32.241Z,98521.19
2022-09-15T08:56:34.586Z,98521.19
2022-09-15T08:57:36.908Z,98524.70
2022-09-15T08:58:39.001Z,98514.98
2022-09-15T08:59:41.192Z,98518.52
2022-09-15T09:00:44.880Z,98521.33
2022-09-15T09:02:03.029Z,98517.66
2022-09-15T09:03:35.000Z,98520.33
2022-09-15T09:05:16.481Z,98523.87
2022-09-15T09:06:48.610Z,98522.16
2022-09-15T09:08:26.889Z,98517.79
2022-09-15T09:09:32.824Z,98518.77
2022-09-15T09:10:55.092Z,98515.39
2022-09-15T09:12:16.104Z,98517.34
2022-09-15T09:13:39.118Z,98511.16
2022-09-15T09:14:45.135Z,98508.73
2022-09-15T09:17:30.815Z,98507.96
2022-09-15T09:18:39.409Z,98507.03
2022-09-15T09:20:09.941Z,98508.87
2022-09-15T09:22:30.216Z,98501.61
2022-09-15T09:23:33.310Z,98503.38
2022-09-15T09:24:42.932Z,98502.66
2022-09-15T09:25:45.107Z,98501.81
2022-09-15T09:26:49.390Z,98506.19
2022-09-15T09:27:51.540Z,98507.03
2022-09-15T09:29:04.417Z,98500.70
2022-09-15T09:34:18.170Z,98507.41
2022-09-15T09:35:46.461Z,98495.84
2022-09-15T09:38:07.459Z,98498.41
2022-09-15T09:40:25.533Z,98500.94
2022-09-15T09:41:27.867Z,98503.59
2022-09-15T09:42:31.215Z,98501.89
2022-09-15T09:43:33.401Z,98497.52
2022-09-15T09:44:36.083Z,98498.23
2022-09-15T09:45:39.664Z,98508.80
2022-09-15T09:46:42.467Z,98506.81
2022-09-15T09:47:45.386Z,98502.33
2022-09-15T09:50:01.494Z,98496.15
2022-09-15T09:51:04.640Z,98493.59
2022-09-15T09:52:07.338Z,98496.98
2022-09-15T09:53:33.033Z,98495.98
2022-09-15T09:54:36.333Z,98495.98
2022-09-15T09:55:40.457Z,98498.66
2022-09-15T09:56:43.881Z,98496.98
2022-09-15T09:57:46.014Z,98497.82
2022-09-15T09:58:48.420Z,98502.20
2022-09-15T09:59:50.614Z,98508.52
2022-09-15T10:00:53.562Z,98504.00
2022-09-15T10:02:14.681Z,98503.17
2022-09-15T10:03:25.485Z,98505.84
2022-09-15T10:04:28.690Z,98503.17
2022-09-15T10:05:34.268Z,98506.67
2022-09-15T10:06:38.793Z,98512.02
2022-09-15T10:07:41.664Z,98513.03
2022-09-15T10:08:57.834Z,98516.54
2022-09-15T10:10:00.686Z,98511.33
2022-09-15T10:11:07.972Z,98520.19
2022-09-15T10:12:13.948Z,98515.70
2022-09-15T10:13:17.115Z,98520.19
2022-09-15T10:14:28.830Z,98529.91
2022-09-15T10:15:31.484Z,98526.27
2022-09-15T10:16:33.911Z,98524.01
2022-09-15T10:17:39.789Z,98523.28
2022-09-15T10:18:41.953Z,98524.11
2022-09-15T10:19:53.038Z,98530.19
2022-09-15T10:20:55.263Z,98524.25
2022-09-15T10:21:58.353Z,98526.23
2022-09-15T10:23:21.264Z,98527.20
2022-09-15T10:24:35.914Z,98532.27
2022-09-15T10:25:58.449Z,98528.63
2022-09-15T10:26:42.859Z,98521.44
2022-09-15T10:27:48.030Z,98522.44
2022-09-15T10:29:19.444Z,98525.12
2022-09-15T10:30:23.162Z,98526.78
2022-09-15T10:31:28.406Z,98517.79
2022-09-15T10:32:30.822Z,98512.30
2022-09-15T10:34:46.806Z,98514.17
2022-09-15T10:35:49.982Z,98518.66
2022-09-15T10:38:14.368Z,98508.69
2022-09-15T10:39:35.366Z,98512.16
2022-09-15T10:40:46.727Z,98514.00
2022-09-15T10:41:58.715Z,98528.07
2022-09-15T10:43:20.549Z,98515.42
2022-09-15T10:44:35.963Z,98516.27
2022-09-15T10:45:39.228Z,98523.31
2022-09-15T10:48:30.976Z,98506.04
2022-09-15T10:49:39.959Z,98506.16
2022-09-15T10:52:45.220Z,98496.17
2022-09-15T10:54:03.475Z,98499.83
2022-09-15T10:55:51.603Z,98496.42
2022-09-15T10:56:42.443Z,98493.89
2022-09-15T10:57:57.094Z,98491.22
2022-09-15T10:59:09.010Z,98491.22
2022-09-15T11:01:29.396Z,98491.24
2022-09-15T11:02:53.253Z,98493.05
2022-09-15T11:03:59.799Z,98496.56
2022-09-15T11:05:28.330Z,98493.89
2022-09-15T11:06:37.688Z,98487.71
2022-09-15T11:07:53.185Z,98496.42
2022-09-15T11:09:17.657Z,98490.24
2022-09-15T11:12:01.493Z,98482.24
2022-09-15T11:13:13.573Z,98492.05
2022-09-15T11:14:19.510Z,98493.05
2022-09-15T11:15:31.453Z,98501.08
2022-09-15T11:17:10.576Z,98494.03
2022-09-15T11:18:19.184Z,98495.73
2022-09-15T11:21:09.545Z,98486.34
2022-09-15T11:23:33.822Z,98476.61
2022-09-15T11:26:09.404Z,98480.12
2022-09-15T11:27:21.614Z,98473.91
2022-09-15T11:28:38.991Z,98474.05
2022-09-15T11:29:54.074Z,98470.41
2022-09-15T11:31:02.593Z,98477.56
2022-09-15T11:32:13.438Z,98475.76
2022-09-15T11:33:18.582Z,98477.56
2022-09-15T11:35:55.848Z,98464.35
2022-09-15T11:38:37.669Z,98468.73
2022-09-15T11:39:49.732Z,98461.80
2022-09-15T11:41:17.031Z,98461.80
2022-09-15T11:42:28.743Z,98466.17
2022-09-15T11:43:37.095Z,98458.16
2022-09-15T11:44:41.112Z,98461.80
2022-09-15T11:45:46.736Z,98460.83
2022-09-15T11:47:09.256Z,98456.45
2022-09-15T11:50:59.809Z,98454.63
2022-09-15T11:52:09.661Z,98459.13
2022-09-15T11:53:18.782Z,98455.61
2022-09-15T11:55:38.779Z,98458.31
2022-09-15T11:56:45.670Z,98457.28
2022-09-15T11:59:16.424Z,98458.17
2022-09-15T12:00:21.598Z,98452.94
2022-09-15T12:01:33.760Z,98445.75
2022-09-15T12:02:52.895Z,98443.08
2022-09-15T12:04:02.667Z,98442.24
2022-09-15T12:05:29.283Z,98437.73
2022-09-15T12:07:59.282Z,98439.45
2022-09-15T12:09:04.402Z,98445.06
2022-09-15T12:10:16.586Z,98444.19
2022-09-15T12:11:20.688Z,98446.87
2022-09-15T12:12:22.991Z,98440.69
2022-09-15T12:13:25.679Z,98444.19
2022-09-15T12:14:34.132Z,98441.52
2022-09-15T12:15:36.333Z,98437.87
2022-09-15T12:16:38.647Z,98432.52
2022-09-15T12:17:47.569Z,98435.20
2022-09-15T12:19:08.594Z,98435.20
2022-09-15T12:20:24.642Z,98431.69
2022-09-15T12:21:33.951Z,98437.03
2022-09-15T12:22:42.118Z,98426.34
2022-09-15T12:24:04.194Z,98427.17
2022-09-15T12:25:15.545Z,98425.47
2022-09-15T12:26:19.387Z,98426.34
2022-09-15T12:27:22.840Z,98430.82
2022-09-15T12:28:26.183Z,98426.34
2022-09-15T12:29:30.782Z,98432.52
2022-09-15T12:30:42.194Z,98427.17
2022-09-15T12:31:45.464Z,98427.86
2022-09-15T12:32:47.610Z,98423.38
2022-09-15T12:34:26.244Z,98428.59
2022-09-15T12:35:29.674Z,98422.27
2022-09-15T12:36:36.576Z,98425.77
2022-09-15T12:37:53.682Z,98422.27
2022-09-15T12:38:55.972Z,98425.77
2022-09-15T12:39:58.111Z,98426.75
2022-09-15T12:41:02.154Z,98429.28
2022-09-15T12:42:07.901Z,98430.15
2022-09-15T12:43:13.833Z,98436.33
2022-09-15T12:44:25.910Z,98431.84
2022-09-15T12:45:29.719Z,98434.38
2022-09-15T12:46:32.757Z,98433.38
2022-09-15T12:47:43.468Z,98441.25
2022-09-15T12:48:47.470Z,98433.23
2022-09-15T12:49:50.296Z,98436.91
2022-09-15T12:50:54.367Z,98440.42
2022-09-15T12:51:57.064Z,98440.42
2022-09-15T12:53:01.838Z,98447.47
2022-09-15T12:54:04.150Z,98435.91
2022-09-15T12:55:08.736Z,98437.60
2022-09-15T12:57:37.020Z,98439.89
2022-09-15T12:58:41.892Z,98435.51
2022-09-15T12:59:44.819Z,98430.16
2022-09-15T13:01:07.249Z,98430.99
2022-09-15T13:01:51.874Z,98428.17
2022-09-15T13:02:55.264Z,98421.70
2022-09-15T13:04:02.291Z,98427.20
2022-09-15T13:05:07.993Z,98418.20
2022-09-15T13:06:26.784Z,98419.03
2022-09-15T13:07:33.877Z,98427.78
2022-09-15T13:08:39.796Z,98420.44
2022-09-15T13:10:09.573Z,98421.28
2022-09-15T13:12:31.019Z,98414.95
2022-09-15T13:13:43.039Z,98419.33
2022-09-15T13:14:46.388Z,98423.84
2022-09-15T13:15:49.486Z,98411.44
2022-09-15T13:18:07.821Z,98413.14
2022-09-15T13:19:28.941Z,98417.63
2022-09-15T13:20:34.656Z,98425.66
2022-09-15T13:21:38.014Z,98427.50
2022-09-15T13:22:44.840Z,98425.66
2022-09-15T13:23:47.351Z,98423.84
2022-09-15T13:25:11.337Z,98411.44
2022-09-15T13:26:17.011Z,98427.50
2022-09-15T13:27:21.262Z,98418.60
2022-09-15T13:28:24.144Z,98422.14
2022-09-15T13:29:26.585Z,98425.80
2022-09-15T13:30:54.119Z,98412.56
2022-09-15T13:32:12.814Z,98418.89
2022-09-15T13:35:04.314Z,98413.69
2022-09-15T13:36:20.718Z,98414.66
2022-09-15T13:38:59.681Z,98413.97
2022-09-15T13:41:36.220Z,98416.80
2022-09-15T13:44:03.679Z,98419.61
2022-09-15T13:45:15.842Z,98418.73
2022-09-15T13:46:25.112Z,98412.70
2022-09-15T13:47:37.991Z,98415.37
2022-09-15T13:48:56.434Z,98413.67
2022-09-15T13:50:05.807Z,98410.16
2022-09-15T13:51:16.020Z,98408.33
2022-09-15T13:52:23.040Z,98411.83
2022-09-15T13:53:34.811Z,98417.33
2022-09-15T13:54:36.964Z,98421.00
2022-09-15T13:55:42.081Z,98413.95
2022-09-15T13:56:44.564Z,98414.79
2022-09-15T13:58:57.293Z,98419.16
2022-09-15T13:59:57.056Z,98421.00
2022-09-15T14:01:04.922Z,98417.47
2022-09-15T14:02:09.740Z,98419.16